sensor_id;sensor_type;location;lat;lon;timestamp;pressure;altitude;pressure_sealevel;temperature;humidity
20019;BME280;10170;42.502;26.526;2023-02-26T00:01:26;98836.69;;;11.38;100.00
20019;BME280;10170;42.502;26.526;2023-02-26T00:03:55;98847.09;;;11.51;100.00
20019;BME280;10170;42.502;26.526;2023-02-26T00:06:23;98824.06;;;11.56;100.00
20019;BME280;10170;42.502;26.526;2023-02-26T00:08:52;98823.06;;;11.69;100.00
20019;BME280;10170;42.502;26.526;2023-02-26T00:11:20;98825.81;;;11.97;100.00
20019;BME280;10170;42.502;26.526;2023-02-26T00:13:48;98824.56;;;11.88;100.00
20019;BME280;10170;42.502;26.526;2023-02-26T00:18:57;98832.31;;;11.78;100.00
20019;BME280;10170;42.502;26.526;2023-02-26T00:21:25;98825.13;;;11.55;100.00
20019;BME280;10170;42.502;26.526;2023-02-26T00:23:53;98812.63;;;11.56;100.00
20019;BME280;10170;42.502;26.526;2023-02-26T00:26:20;98830.09;;;11.87;100.00
20019;BME280;10170;42.502;26.526;2023-02-26T00:28:48;98816.44;;;11.37;100.00
20019;BME280;10170;42.502;26.526;2023-02-26T00:31:16;98823.72;;;11.53;100.00
20019;BME280;10170;42.502;26.526;2023-02-26T00:33:54;98825.72;;;11.57;100.00
20019;BME280;10170;42.502;26.526;2023-02-26T00:36:45;98829.78;;;11.72;100.00
20019;BME280;10170;42.502;26.526;2023-02-26T00:39:41;98822.13;;;11.75;100.00
20019;BME280;10170;42.502;26.526;2023-02-26T00:42:11;98823.28;;;11.79;100.00
20019;BME280;10170;42.502;26.526;2023-02-26T00:44:39;98845.53;;;11.73;100.00
20019;BME280;10170;42.502;26.526;2023-02-26T00:55:18;98844.22;;;10.88;100.00
20019;BME280;10170;42.502;26.526;2023-02-26T00:57:45;98852.97;;;11.07;100.00
20019;BME280;10170;42.502;26.526;2023-02-26T01:00:12;98849.84;;;11.10;100.00
20019;BME280;10170;42.502;26.526;2023-02-26T01:02:40;98843.97;;;11.42;100.00
20019;BME280;10170;42.502;26.526;2023-02-26T01:05:09;98841.69;;;11.34;100.00
20019;BME280;10170;42.502;26.526;2023-02-26T01:10:12;98864.72;;;11.52;100.00
20019;BME280;10170;42.502;26.526;2023-02-26T01:12:40;98862.28;;;11.85;100.00
20019;BME280;10170;42.502;26.526;2023-02-26T01:15:07;98859.59;;;12.20;100.00
20019;BME280;10170;42.502;26.526;2023-02-26T01:18:03;98840.63;;;12.44;100.00
20019;BME280;10170;42.502;26.526;2023-02-26T01:20:28;98852.50;;;12.65;100.00
20019;BME280;10170;42.502;26.526;2023-02-26T01:23:07;98852.72;;;12.92;100.00
20019;BME280;10170;42.502;26.526;2023-02-26T01:25:39;98869.13;;;13.12;100.00
20019;BME280;10170;42.502;26.526;2023-02-26T01:28:09;98870.66;;;13.24;100.00
20019;BME280;10170;42.502;26.526;2023-02-26T01:30:36;98852.44;;;13.38;100.00
20019;BME280;10170;42.502;26.526;2023-02-26T01:33:39;98871.78;;;13.61;100.00
20019;BME280;10170;42.502;26.526;2023-02-26T01:36:09;98865.16;;;13.64;100.00
20019;BME280;10170;42.502;26.526;2023-02-26T01:41:32;98872.75;;;13.72;100.00
20019;BME280;10170;42.502;26.526;2023-02-26T01:44:18;98889.28;;;13.69;100.00
20019;BME280;10170;42.502;26.526;2023-02-26T01:49:21;98877.13;;;13.45;100.00
20019;BME280;10170;42.502;26.526;2023-02-26T01:54:23;98883.69;;;13.37;100.00
20019;BME280;10170;42.502;26.526;2023-02-26T01:56:58;98867.34;;;13.34;100.00
20019;BME280;10170;42.502;26.526;2023-02-26T01:59:26;98889.44;;;13.29;100.00
20019;BME280;10170;42.502;26.526;2023-02-26T02:01:55;98875.66;;;13.54;100.00
20019;BME280;10170;42.502;26.526;2023-02-26T02:04:24;98887.00;;;13.44;100.00
20019;BME280;10170;42.502;26.526;2023-02-26T02:06:53;98882.97;;;13.42;100.00
20019;BME280;10170;42.502;26.526;2023-02-26T02:09:20;98885.88;;;13.24;100.00
20019;BME280;10170;42.502;26.526;2023-02-26T02:23:19;98867.56;;;13.32;100.00
20019;BME280;10170;42.502;26.526;2023-02-26T02:26:08;98880.22;;;13.37;100.00
20019;BME280;10170;42.502;26.526;2023-02-26T02:31:56;98896.56;;;13.40;100.00
20019;BME280;10170;42.502;26.526;2023-02-26T02:34:44;98894.13;;;13.39;100.00
20019;BME280;10170;42.502;26.526;2023-02-26T02:40:20;98894.28;;;13.49;100.00
20019;BME280;10170;42.502;26.526;2023-02-26T02:45:36;98894.94;;;13.39;100.00
20019;BME280;10170;42.502;26.526;2023-02-26T02:48:09;98895.56;;;13.46;100.00
20019;BME280;10170;42.502;26.526;2023-02-26T02:50:50;98896.41;;;13.47;100.00
20019;BME280;10170;42.502;26.526;2023-02-26T02:53:26;98891.94;;;13.52;100.00
20019;BME280;10170;42.502;26.526;2023-02-26T02:56:00;98912.50;;;13.52;100.00
20019;BME280;10170;42.502;26.526;2023-02-26T02:58:33;98915.66;;;13.49;100.00
20019;BME280;10170;42.502;26.526;2023-02-26T03:01:06;98917.91;;;13.57;100.00
20019;BME280;10170;42.502;26.526;2023-02-26T03:06:10;98915.88;;;13.31;100.00
20019;BME280;10170;42.502;26.526;2023-02-26T03:08:40;98933.38;;;13.38;100.00
20019;BME280;10170;42.502;26.526;2023-02-26T03:11:08;98936.81;;;13.22;100.00
20019;BME280;10170;42.502;26.526;2023-02-26T03:13:36;98930.69;;;13.22;100.00
20019;BME280;10170;42.502;26.526;2023-02-26T03:22:02;98935.91;;;12.89;100.00
20019;BME280;10170;42.502;26.526;2023-02-26T03:24:37;98933.28;;;12.77;100.00
20019;BME280;10170;42.502;26.526;2023-02-26T03:32:41;98932.31;;;13.23;100.00
20019;BME280;10170;42.502;26.526;2023-02-26T03:35:17;98935.31;;;13.26;100.00
20019;BME280;10170;42.502;26.526;2023-02-26T03:37:49;98931.56;;;13.27;100.00
20019;BME280;10170;42.502;26.526;2023-02-26T03:40:27;98939.34;;;13.29;100.00
20019;BME280;10170;42.502;26.526;2023-02-26T03:43:03;98931.97;;;13.36;100.00
20019;BME280;10170;42.502;26.526;2023-02-26T03:45:33;98937.72;;;13.28;100.00
20019;BME280;10170;42.502;26.526;2023-02-26T03:48:04;98936.41;;;13.30;100.00
20019;BME280;10170;42.502;26.526;2023-02-26T03:50:47;98931.34;;;13.29;100.00
20019;BME280;10170;42.502;26.526;2023-02-26T03:53:19;98937.81;;;13.33;100.00
20019;BME280;10170;42.502;26.526;2023-02-26T03:55:56;98933.03;;;13.35;100.00
20019;BME280;10170;42.502;26.526;2023-02-26T03:58:26;98943.25;;;13.38;100.00
20019;BME280;10170;42.502;26.526;2023-02-26T04:01:18;98925.69;;;13.42;100.00
20019;BME280;10170;42.502;26.526;2023-02-26T04:04:02;98925.19;;;13.45;100.00
20019;BME280;10170;42.502;26.526;2023-02-26T04:06:30;98934.44;;;13.54;100.00
20019;BME280;10170;42.502;26.526;2023-02-26T04:08:59;98934.94;;;13.67;100.00
20019;BME280;10170;42.502;26.526;2023-02-26T04:11:28;98936.44;;;13.47;100.00
20019;BME280;10170;42.502;26.526;2023-02-26T04:13:56;98941.47;;;13.43;100.00
20019;BME280;10170;42.502;26.526;2023-02-26T04:16:23;98936.06;;;13.55;100.00
20019;BME280;10170;42.502;26.526;2023-02-26T04:18:50;98936.06;;;13.55;100.00
20019;BME280;10170;42.502;26.526;2023-02-26T04:21:19;98932.16;;;13.62;100.00
20019;BME280;10170;42.502;26.526;2023-02-26T04:23:47;98935.91;;;13.61;100.00
20019;BME280;10170;42.502;26.526;2023-02-26T04:26:14;98937.66;;;13.56;100.00
20019;BME280;10170;42.502;26.526;2023-02-26T04:28:41;98938.16;;;13.69;100.00
20019;BME280;10170;42.502;26.526;2023-02-26T04:31:08;98931.63;;;13.60;100.00
20019;BME280;10170;42.502;26.526;2023-02-26T04:33:36;98928.19;;;13.48;100.00
20019;BME280;10170;42.502;26.526;2023-02-26T04:36:03;98932.50;;;13.49;100.00
20019;BME280;10170;42.502;26.526;2023-02-26T04:38:30;98934.19;;;13.39;100.00
20019;BME280;10170;42.502;26.526;2023-02-26T04:40:57;98916.84;;;13.25;100.00
20019;BME280;10170;42.502;26.526;2023-02-26T04:43:24;98928.13;;;13.43;100.00
20019;BME280;10170;42.502;26.526;2023-02-26T04:45:50;98929.19;;;13.42;100.00
20019;BME280;10170;42.502;26.526;2023-02-26T04:48:17;98921.16;;;13.42;100.00
20019;BME280;10170;42.502;26.526;2023-02-26T04:50:45;98930.41;;;13.51;100.00
20019;BME280;10170;42.502;26.526;2023-02-26T04:53:12;98931.59;;;13.44;100.00
20019;BME280;10170;42.502;26.526;2023-02-26T04:55:39;98924.63;;;13.43;100.00
20019;BME280;10170;42.502;26.526;2023-02-26T04:58:07;98918.88;;;13.34;100.00
20019;BME280;10170;42.502;26.526;2023-02-26T05:00:34;98922.81;;;13.32;100.00
20019;BME280;10170;42.502;26.526;2023-02-26T05:03:01;98928.84;;;13.39;100.00
20019;BME280;10170;42.502;26.526;2023-02-26T05:05:27;98915.22;;;13.24;100.00
20019;BME280;10170;42.502;26.526;2023-02-26T05:07:54;98930.88;;;13.48;100.00
20019;BME280;10170;42.502;26.526;2023-02-26T05:10:23;98928.19;;;13.48;100.00
20019;BME280;10170;42.502;26.526;2023-02-26T05:12:50;98935.06;;;13.44;100.00
20019;BME280;10170;42.502;26.526;2023-02-26T05:15:17;98951.81;;;13.40;100.00
20019;BME280;10170;42.502;26.526;2023-02-26T05:17:45;98951.91;;;13.45;100.00
20019;BME280;10170;42.502;26.526;2023-02-26T05:20:12;98935.88;;;13.45;100.00
20019;BME280;10170;42.502;26.526;2023-02-26T05:22:38;98936.22;;;13.48;100.00
20019;BME280;10170;42.502;26.526;2023-02-26T05:25:06;98943.25;;;13.54;100.00
20019;BME280;10170;42.502;26.526;2023-02-26T05:27:33;98933.41;;;13.55;100.00
20019;BME280;10170;42.502;26.526;2023-02-26T05:30:00;98927.97;;;13.66;100.00
20019;BME280;10170;42.502;26.526;2023-02-26T05:32:27;98936.59;;;13.57;100.00
20019;BME280;10170;42.502;26.526;2023-02-26T05:34:54;98943.84;;;13.56;100.00
20019;BME280;10170;42.502;26.526;2023-02-26T05:37:21;98936.88;;;13.72;100.00
20019;BME280;10170;42.502;26.526;2023-02-26T05:39:47;98925.47;;;13.60;100.00
20019;BME280;10170;42.502;26.526;2023-02-26T05:42:14;98950.22;;;13.72;100.00
20019;BME280;10170;42.502;26.526;2023-02-26T05:44:41;98963.72;;;13.82;100.00
20019;BME280;10170;42.502;26.526;2023-02-26T05:47:09;98970.78;;;13.71;100.00
20019;BME280;10170;42.502;26.526;2023-02-26T05:49:36;98961.94;;;13.88;100.00
20019;BME280;10170;42.502;26.526;2023-02-26T05:52:03;98965.13;;;13.85;100.00
20019;BME280;10170;42.502;26.526;2023-02-26T05:54:30;98965.94;;;13.85;100.00
20019;BME280;10170;42.502;26.526;2023-02-26T05:56:57;98970.16;;;13.81;100.00
20019;BME280;10170;42.502;26.526;2023-02-26T05:59:23;98972.50;;;13.94;100.00
20019;BME280;10170;42.502;26.526;2023-02-26T06:01:50;98972.50;;;13.77;100.00
20019;BME280;10170;42.502;26.526;2023-02-26T06:04:17;98977.44;;;13.69;100.00
20019;BME280;10170;42.502;26.526;2023-02-26T06:06:44;98994.19;;;13.81;100.00
20019;BME280;10170;42.502;26.526;2023-02-26T06:09:11;98993.69;;;13.84;100.00
20019;BME280;10170;42.502;26.526;2023-02-26T06:11:38;99006.59;;;13.87;100.00
20019;BME280;10170;42.502;26.526;2023-02-26T06:14:06;99008.59;;;13.97;100.00
20019;BME280;10170;42.502;26.526;2023-02-26T06:16:33;99001.72;;;14.17;100.00
20019;BME280;10170;42.502;26.526;2023-02-26T06:19:01;98997.28;;;14.06;100.00
20019;BME280;10170;42.502;26.526;2023-02-26T06:21:29;98999.63;;;14.19;100.00
20019;BME280;10170;42.502;26.526;2023-02-26T06:23:56;98996.78;;;14.09;100.00
20019;BME280;10170;42.502;26.526;2023-02-26T06:26:23;99010.38;;;14.24;100.00
20019;BME280;10170;42.502;26.526;2023-02-26T06:28:50;99013.22;;;14.34;100.00
20019;BME280;10170;42.502;26.526;2023-02-26T06:31:17;99020.28;;;14.40;100.00
20019;BME280;10170;42.502;26.526;2023-02-26T06:33:44;99019.84;;;14.48;100.00
20019;BME280;10170;42.502;26.526;2023-02-26T06:36:11;99010.34;;;14.57;100.00
20019;BME280;10170;42.502;26.526;2023-02-26T06:38:38;99016.97;;;14.71;100.00
20019;BME280;10170;42.502;26.526;2023-02-26T06:41:05;99024.47;;;14.91;100.00
20019;BME280;10170;42.502;26.526;2023-02-26T06:43:32;99000.75;;;15.00;100.00
20019;BME280;10170;42.502;26.526;2023-02-26T06:45:59;99013.19;;;15.11;100.00
20019;BME280;10170;42.502;26.526;2023-02-26T06:48:26;99019.63;;;15.15;100.00
20019;BME280;10170;42.502;26.526;2023-02-26T06:50:53;99007.50;;;15.29;100.00
20019;BME280;10170;42.502;26.526;2023-02-26T06:53:20;99028.22;;;15.38;100.00
20019;BME280;10170;42.502;26.526;2023-02-26T06:55:49;99030.28;;;15.53;100.00
20019;BME280;10170;42.502;26.526;2023-02-26T06:58:17;99031.69;;;15.60;100.00
20019;BME280;10170;42.502;26.526;2023-02-26T07:00:45;99036.09;;;15.71;100.00
20019;BME280;10170;42.502;26.526;2023-02-26T07:03:14;99036.53;;;15.90;100.00
20019;BME280;10170;42.502;26.526;2023-02-26T07:05:44;99043.56;;;15.96;100.00
20019;BME280;10170;42.502;26.526;2023-02-26T07:08:11;99027.41;;;15.86;100.00
20019;BME280;10170;42.502;26.526;2023-02-26T07:10:39;99003.69;;;16.46;100.00
20019;BME280;10170;42.502;26.526;2023-02-26T07:13:06;99018.75;;;16.47;100.00
20019;BME280;10170;42.502;26.526;2023-02-26T07:15:33;99022.09;;;16.69;100.00
20019;BME280;10170;42.502;26.526;2023-02-26T07:18:00;99013.56;;;16.77;100.00
20019;BME280;10170;42.502;26.526;2023-02-26T07:20:27;99015.84;;;17.06;100.00
20019;BME280;10170;42.502;26.526;2023-02-26T07:22:55;99042.03;;;16.78;100.00
20019;BME280;10170;42.502;26.526;2023-02-26T07:25:22;99032.03;;;17.21;100.00
20019;BME280;10170;42.502;26.526;2023-02-26T07:27:49;99005.38;;;17.09;100.00
20019;BME280;10170;42.502;26.526;2023-02-26T07:30:16;99012.34;;;17.10;100.00
20019;BME280;10170;42.502;26.526;2023-02-26T07:32:43;99026.41;;;17.32;100.00
20019;BME280;10170;42.502;26.526;2023-02-26T07:35:10;99005.81;;;17.53;100.00
20019;BME280;10170;42.502;26.526;2023-02-26T07:37:37;99001.16;;;17.33;100.00
20019;BME280;10170;42.502;26.526;2023-02-26T07:40:04;99024.53;;;17.33;100.00
20019;BME280;10170;42.502;26.526;2023-02-26T07:42:31;99027.03;;;17.64;100.00
20019;BME280;10170;42.502;26.526;2023-02-26T07:44:58;99014.69;;;17.58;100.00
20019;BME280;10170;42.502;26.526;2023-02-26T07:47:25;99033.69;;;17.37;100.00
20019;BME280;10170;42.502;26.526;2023-02-26T07:49:52;99034.16;;;17.24;100.00
20019;BME280;10170;42.502;26.526;2023-02-26T07:52:19;99015.97;;;17.46;100.00
20019;BME280;10170;42.502;26.526;2023-02-26T07:54:46;99021.13;;;17.52;100.00
20019;BME280;10170;42.502;26.526;2023-02-26T07:57:12;99041.81;;;17.57;100.00
20019;BME280;10170;42.502;26.526;2023-02-26T07:59:39;99023.28;;;17.70;100.00
20019;BME280;10170;42.502;26.526;2023-02-26T08:02:06;99024.34;;;17.49;100.00
20019;BME280;10170;42.502;26.526;2023-02-26T08:04:33;99059.75;;;17.41;100.00
20019;BME280;10170;42.502;26.526;2023-02-26T08:07:00;99042.91;;;17.66;100.00
20019;BME280;10170;42.502;26.526;2023-02-26T08:09:27;99061.72;;;17.61;100.00
20019;BME280;10170;42.502;26.526;2023-02-26T08:11:54;99060.16;;;17.95;100.00
20019;BME280;10170;42.502;26.526;2023-02-26T08:14:21;99058.66;;;17.37;100.00
20019;BME280;10170;42.502;26.526;2023-02-26T08:16:48;99074.34;;;17.60;100.00
20019;BME280;10170;42.502;26.526;2023-02-26T08:19:15;99049.38;;;17.75;100.00
20019;BME280;10170;42.502;26.526;2023-02-26T08:21:42;99069.78;;;17.51;100.00
20019;BME280;10170;42.502;26.526;2023-02-26T08:24:10;99061.72;;;17.56;100.00
20019;BME280;10170;42.502;26.526;2023-02-26T08:26:38;99071.38;;;17.52;100.00
20019;BME280;10170;42.502;26.526;2023-02-26T08:29:05;99054.88;;;17.28;100.00
20019;BME280;10170;42.502;26.526;2023-02-26T08:31:32;99089.25;;;17.26;100.00
20019;BME280;10170;42.502;26.526;2023-02-26T08:34:00;99081.38;;;17.05;100.00
20019;BME280;10170;42.502;26.526;2023-02-26T08:36:27;99105.59;;;17.10;100.00
20019;BME280;10170;42.502;26.526;2023-02-26T08:38:54;99103.81;;;16.83;100.00
20019;BME280;10170;42.502;26.526;2023-02-26T08:41:21;99082.88;;;16.85;100.00
20019;BME280;10170;42.502;26.526;2023-02-26T08:43:48;99100.22;;;17.15;100.00
20019;BME280;10170;42.502;26.526;2023-02-26T08:46:15;99097.53;;;17.15;100.00
20019;BME280;10170;42.502;26.526;2023-02-26T08:48:42;99100.44;;;17.03;100.00
20019;BME280;10170;42.502;26.526;2023-02-26T08:51:09;99108.84;;;17.22;100.00
20019;BME280;10170;42.502;26.526;2023-02-26T08:53:37;99092.44;;;17.18;100.00
20019;BME280;10170;42.502;26.526;2023-02-26T08:56:05;99087.13;;;17.28;100.00
20019;BME280;10170;42.502;26.526;2023-02-26T08:58:32;99087.16;;;17.33;100.00
20019;BME280;10170;42.502;26.526;2023-02-26T09:00:58;99087.19;;;17.43;98.83
20019;BME280;10170;42.502;26.526;2023-02-26T09:03:25;99099.50;;;17.34;99.53
20019;BME280;10170;42.502;26.526;2023-02-26T09:05:52;99082.06;;;17.42;97.51
20019;BME280;10170;42.502;26.526;2023-02-26T09:08:19;99088.53;;;17.46;97.29
20019;BME280;10170;42.502;26.526;2023-02-26T09:10:46;99082.41;;;17.50;96.15
20019;BME280;10170;42.502;26.526;2023-02-26T09:13:13;99091.56;;;17.64;94.81
20019;BME280;10170;42.502;26.526;2023-02-26T09:15:40;99078.19;;;17.84;91.93
20019;BME280;10170;42.502;26.526;2023-02-26T09:18:08;99084.09;;;18.02;89.08
20019;BME280;10170;42.502;26.526;2023-02-26T09:20:42;99078.44;;;17.88;89.24
20019;BME280;10170;42.502;26.526;2023-02-26T09:23:09;99088.69;;;18.16;87.59
20019;BME280;10170;42.502;26.526;2023-02-26T09:25:37;99039.97;;;17.92;85.26
20019;BME280;10170;42.502;26.526;2023-02-26T09:28:04;99072.56;;;18.06;85.17
20019;BME280;10170;42.502;26.526;2023-02-26T09:30:32;99078.47;;;18.13;83.20
20019;BME280;10170;42.502;26.526;2023-02-26T09:32:58;99094.63;;;18.33;81.86
20019;BME280;10170;42.502;26.526;2023-02-26T09:35:25;99084.66;;;18.29;80.95
20019;BME280;10170;42.502;26.526;2023-02-26T09:37:52;99096.00;;;18.51;78.12
20019;BME280;10170;42.502;26.526;2023-02-26T09:40:41;99085.19;;;18.31;76.40
20019;BME280;10170;42.502;26.526;2023-02-26T09:45:56;99078.47;;;18.03;74.49
20019;BME280;10170;42.502;26.526;2023-02-26T09:48:26;99065.53;;;18.05;73.63
20019;BME280;10170;42.502;26.526;2023-02-26T09:50:56;99077.41;;;18.04;72.88
20019;BME280;10170;42.502;26.526;2023-02-26T09:53:27;99084.09;;;18.02;72.73
20019;BME280;10170;42.502;26.526;2023-02-26T09:56:16;99064.44;;;17.76;73.54
20019;BME280;10170;42.502;26.526;2023-02-26T09:58:45;99082.78;;;17.94;73.19
20019;BME280;10170;42.502;26.526;2023-02-26T10:12:54;99075.97;;;17.66;73.91
20019;BME280;10170;42.502;26.526;2023-02-26T10:15:41;99107.44;;;17.61;74.75
20019;BME280;10170;42.502;26.526;2023-02-26T10:23:40;99104.25;;;17.79;74.01
20019;BME280;10170;42.502;26.526;2023-02-26T10:26:21;99107.25;;;17.98;73.35
20019;BME280;10170;42.502;26.526;2023-02-26T10:29:16;99109.38;;;17.80;73.44
20019;BME280;10170;42.502;26.526;2023-02-26T10:32:01;99106.44;;;17.87;73.82
20019;BME280;10170;42.502;26.526;2023-02-26T10:34:36;99116.88;;;17.78;73.68
20019;BME280;10170;42.502;26.526;2023-02-26T10:37:19;99107.22;;;17.87;73.42
20019;BME280;10170;42.502;26.526;2023-02-26T10:45:46;99109.69;;;18.04;73.54
20019;BME280;10170;42.502;26.526;2023-02-26T10:50:56;99096.22;;;17.99;73.31
20019;BME280;10170;42.502;26.526;2023-02-26T10:53:26;99107.00;;;18.04;73.78
20019;BME280;10170;42.502;26.526;2023-02-26T10:56:08;99104.84;;;17.96;74.72
20019;BME280;10170;42.502;26.526;2023-02-26T10:58:37;99114.78;;;18.11;74.93
20019;BME280;10170;42.502;26.526;2023-02-26T11:01:09;99094.63;;;18.03;75.07
20019;BME280;10170;42.502;26.526;2023-02-26T11:03:44;99084.91;;;18.07;75.22
20019;BME280;10170;42.502;26.526;2023-02-26T11:06:19;99101.09;;;18.17;74.75
20019;BME280;10170;42.502;26.526;2023-02-26T11:08:52;99108.63;;;18.10;74.66
20019;BME280;10170;42.502;26.526;2023-02-26T11:11:42;99106.75;;;18.16;74.80
20019;BME280;10170;42.502;26.526;2023-02-26T11:14:11;99097.03;;;18.15;74.14
20019;BME280;10170;42.502;26.526;2023-02-26T11:16:50;99101.91;;;18.33;73.96
20019;BME280;10170;42.502;26.526;2023-02-26T11:19:25;99092.47;;;18.20;72.26
20019;BME280;10170;42.502;26.526;2023-02-26T11:21:53;99093.28;;;18.31;72.71
20019;BME280;10170;42.502;26.526;2023-02-26T11:24:28;99090.31;;;18.27;72.33
20019;BME280;10170;42.502;26.526;2023-02-26T11:26:59;99090.31;;;18.22;71.89
20019;BME280;10170;42.502;26.526;2023-02-26T11:29:41;99090.31;;;18.17;71.83
20019;BME280;10170;42.502;26.526;2023-02-26T11:32:22;99101.59;;;17.99;77.39
20019;BME280;10170;42.502;26.526;2023-02-26T11:34:51;99110.22;;;18.06;77.16
20019;BME280;10170;42.502;26.526;2023-02-26T11:37:23;99094.09;;;18.06;72.41
20019;BME280;10170;42.502;26.526;2023-02-26T11:40:05;99082.78;;;18.14;69.83
20019;BME280;10170;42.502;26.526;2023-02-26T11:42:47;99103.53;;;18.39;68.90
20019;BME280;10170;42.502;26.526;2023-02-26T11:45:17;99004.75;;;17.69;68.87
20019;BME280;10170;42.502;26.526;2023-02-26T11:47:47;99105.69;;;18.47;68.56
20019;BME280;10170;42.502;26.526;2023-02-26T11:50:19;99116.19;;;18.63;68.23
20019;BME280;10170;42.502;26.526;2023-02-26T11:52:56;99120.75;;;18.83;67.46
20019;BME280;10170;42.502;26.526;2023-02-26T11:55:35;99117.50;;;18.81;67.18
20019;BME280;10170;42.502;26.526;2023-02-26T11:58:14;99108.09;;;18.83;66.94
20019;BME280;10170;42.502;26.526;2023-02-26T12:00:42;99096.78;;;18.76;66.42
20019;BME280;10170;42.502;26.526;2023-02-26T12:03:16;99079.53;;;18.87;65.55
20019;BME280;10170;42.502;26.526;2023-02-26T12:05:43;99109.84;;;19.28;64.97
20019;BME280;10170;42.502;26.526;2023-02-26T12:08:24;99091.69;;;19.59;63.29
20019;BME280;10170;42.502;26.526;2023-02-26T12:24:56;99063.47;;;19.41;62.26
20019;BME280;10170;42.502;26.526;2023-02-26T12:36:05;99069.66;;;19.37;61.32
20019;BME280;10170;42.502;26.526;2023-02-26T12:38:49;99054.16;;;18.99;61.41
20019;BME280;10170;42.502;26.526;2023-02-26T12:41:43;99057.09;;;19.02;61.64
20019;BME280;10170;42.502;26.526;2023-02-26T12:55:56;99074.66;;;18.84;62.39
20019;BME280;10170;42.502;26.526;2023-02-26T13:01:47;99059.31;;;18.85;61.76
20019;BME280;10170;42.502;26.526;2023-02-26T13:04:41;99063.91;;;18.79;61.81
20019;BME280;10170;42.502;26.526;2023-02-26T13:13:15;99062.34;;;18.58;62.10
20019;BME280;10170;42.502;26.526;2023-02-26T13:18:58;99076.31;;;18.55;62.56
20019;BME280;10170;42.502;26.526;2023-02-26T13:21:38;99074.19;;;18.47;62.81
20019;BME280;10170;42.502;26.526;2023-02-26T13:26:39;99077.97;;;18.56;62.68
20019;BME280;10170;42.502;26.526;2023-02-26T13:29:15;99079.84;;;18.51;64.13
20019;BME280;10170;42.502;26.526;2023-02-26T13:32:05;99067.75;;;18.53;65.99
20019;BME280;10170;42.502;26.526;2023-02-26T13:34:52;99085.78;;;18.53;68.32
20019;BME280;10170;42.502;26.526;2023-02-26T13:37:41;99069.63;;;18.48;70.05
20019;BME280;10170;42.502;26.526;2023-02-26T13:53:46;99104.84;;;17.96;81.34
20019;BME280;10170;42.502;26.526;2023-02-26T13:59:23;99104.25;;;17.79;84.64
20019;BME280;10170;42.502;26.526;2023-02-26T14:01:55;99097.00;;;17.84;85.26
20019;BME280;10170;42.502;26.526;2023-02-26T14:04:29;99100.19;;;17.76;86.96
20019;BME280;10170;42.502;26.526;2023-02-26T14:07:10;99084.31;;;17.70;88.92
20019;BME280;10170;42.502;26.526;2023-02-26T14:09:43;99086.75;;;17.71;89.35
20019;BME280;10170;42.502;26.526;2023-02-26T14:12:35;99091.84;;;17.68;90.23
20019;BME280;10170;42.502;26.526;2023-02-26T14:18:00;99098.03;;;17.58;92.57
20019;BME280;10170;42.502;26.526;2023-02-26T14:20:29;99096.66;;;17.56;92.08
20019;BME280;10170;42.502;26.526;2023-02-26T14:25:39;99102.06;;;17.66;90.37
20019;BME280;10170;42.502;26.526;2023-02-26T14:33:56;99108.25;;;17.61;89.24
20019;BME280;10170;42.502;26.526;2023-02-26T14:36:54;99105.81;;;17.60;89.65
20019;BME280;10170;42.502;26.526;2023-02-26T14:39:38;99117.34;;;17.55;90.56
20019;BME280;10170;42.502;26.526;2023-02-26T14:42:17;99122.72;;;17.55;90.98
20019;BME280;10170;42.502;26.526;2023-02-26T14:44:50;99122.50;;;17.62;90.52
20019;BME280;10170;42.502;26.526;2023-02-26T14:47:19;99121.59;;;17.46;91.27
20019;BME280;10170;42.502;26.526;2023-02-26T14:49:46;99105.72;;;17.45;91.47
20019;BME280;10170;42.502;26.526;2023-02-26T15:03:17;99117.25;;;17.35;93.96
20019;BME280;10170;42.502;26.526;2023-02-26T15:23:46;99097.25;;;17.06;100.00
20019;BME280;10170;42.502;26.526;2023-02-26T15:26:34;99100.41;;;16.98;100.00
20019;BME280;10170;42.502;26.526;2023-02-26T15:29:04;99112.97;;;16.88;100.00
20019;BME280;10170;42.502;26.526;2023-02-26T15:31:40;99128.56;;;16.91;100.00
20019;BME280;10170;42.502;26.526;2023-02-26T15:34:11;99131.03;;;16.97;100.00
20019;BME280;10170;42.502;26.526;2023-02-26T15:36:43;99136.88;;;16.89;100.00
20019;BME280;10170;42.502;26.526;2023-02-26T15:39:12;99139.81;;;16.88;100.00
20019;BME280;10170;42.502;26.526;2023-02-26T15:41:41;99161.00;;;16.79;100.00
20019;BME280;10170;42.502;26.526;2023-02-26T15:44:15;99142.91;;;16.69;100.00
20019;BME280;10170;42.502;26.526;2023-02-26T15:46:49;99167.66;;;16.76;100.00
20019;BME280;10170;42.502;26.526;2023-02-26T15:49:25;99187.06;;;16.83;100.00
20019;BME280;10170;42.502;26.526;2023-02-26T15:51:55;99183.28;;;16.79;100.00
20019;BME280;10170;42.502;26.526;2023-02-26T15:54:25;99186.94;;;16.68;100.00
20019;BME280;10170;42.502;26.526;2023-02-26T15:56:55;99181.66;;;16.78;100.00
20019;BME280;10170;42.502;26.526;2023-02-26T15:59:27;99171.84;;;16.62;100.00
20019;BME280;10170;42.502;26.526;2023-02-26T16:01:55;99165.13;;;16.60;100.00
20019;BME280;10170;42.502;26.526;2023-02-26T16:04:23;99187.00;;;16.73;100.00
20019;BME280;10170;42.502;26.526;2023-02-26T16:06:55;99184.47;;;16.62;100.00
20019;BME280;10170;42.502;26.526;2023-02-26T16:09:29;99193.25;;;16.52;100.00
20019;BME280;10170;42.502;26.526;2023-02-26T16:12:05;99198.66;;;16.57;100.00
20019;BME280;10170;42.502;26.526;2023-02-26T16:14:36;99193.34;;;16.62;100.00